sensor_id;sensor_type;location;lat;lon;timestamp;P1;durP1;ratioP1;P2;durP2;ratioP2
72286;SDS011;60221;45.696;16.076;2023-01-10T00:01:23;5.70;;;1.50;;
72286;SDS011;60221;45.696;16.076;2023-01-10T00:03:50;3.90;;;1.10;;
72286;SDS011;60221;45.696;16.076;2023-01-10T00:06:16;9.10;;;2.50;;
72286;SDS011;60221;45.696;16.076;2023-01-10T00:08:43;8.70;;;2.50;;
72286;SDS011;60221;45.696;16.076;2023-01-10T00:11:09;6.70;;;1.40;;
72286;SDS011;60221;45.696;16.076;2023-01-10T00:13:55;6.50;;;1.80;;
72286;SDS011;60221;45.696;16.076;2023-01-10T00:16:22;6.80;;;1.50;;
72286;SDS011;60221;45.696;16.076;2023-01-10T00:18:48;4.20;;;0.70;;
72286;SDS011;60221;45.696;16.076;2023-01-10T00:21:15;4.60;;;0.90;;
72286;SDS011;60221;45.696;16.076;2023-01-10T00:23:42;4.00;;;0.60;;
72286;SDS011;60221;45.696;16.076;2023-01-10T00:26:09;3.50;;;0.50;;
72286;SDS011;60221;45.696;16.076;2023-01-10T00:28:36;3.10;;;0.30;;
72286;SDS011;60221;45.696;16.076;2023-01-10T00:31:05;3.80;;;0.40;;
72286;SDS011;60221;45.696;16.076;2023-01-10T00:33:32;2.90;;;0.40;;
72286;SDS011;60221;45.696;16.076;2023-01-10T00:36:00;3.90;;;0.40;;
72286;SDS011;60221;45.696;16.076;2023-01-10T00:38:27;3.20;;;0.10;;
72286;SDS011;60221;45.696;16.076;2023-01-10T00:40:54;2.00;;;0.10;;
72286;SDS011;60221;45.696;16.076;2023-01-10T00:43:20;1.30;;;0.10;;
72286;SDS011;60221;45.696;16.076;2023-01-10T00:46:06;2.50;;;0.10;;
72286;SDS011;60221;45.696;16.076;2023-01-10T00:48:33;1.90;;;0.10;;
72286;SDS011;60221;45.696;16.076;2023-01-10T00:51:00;2.10;;;0.10;;
72286;SDS011;60221;45.696;16.076;2023-01-10T00:53:26;1.60;;;0.10;;
72286;SDS011;60221;45.696;16.076;2023-01-10T00:55:53;1.90;;;0.10;;
72286;SDS011;60221;45.696;16.076;2023-01-10T00:58:20;2.00;;;0.20;;
72286;SDS011;60221;45.696;16.076;2023-01-10T01:00:47;2.20;;;0.10;;
72286;SDS011;60221;45.696;16.076;2023-01-10T01:03:18;1.70;;;0.10;;
72286;SDS011;60221;45.696;16.076;2023-01-10T01:05:45;1.40;;;0.00;;
72286;SDS011;60221;45.696;16.076;2023-01-10T01:08:13;1.50;;;0.00;;
72286;SDS011;60221;45.696;16.076;2023-01-10T01:10:40;1.90;;;0.10;;
72286;SDS011;60221;45.696;16.076;2023-01-10T01:13:08;2.50;;;0.10;;
72286;SDS011;60221;45.696;16.076;2023-01-10T01:15:35;2.00;;;0.10;;
72286;SDS011;60221;45.696;16.076;2023-01-10T01:18:03;2.10;;;0.00;;
72286;SDS011;60221;45.696;16.076;2023-01-10T01:20:30;1.00;;;0.00;;
72286;SDS011;60221;45.696;16.076;2023-01-10T01:22:57;1.10;;;0.00;;
72286;SDS011;60221;45.696;16.076;2023-01-10T01:25:23;3.10;;;0.10;;
72286;SDS011;60221;45.696;16.076;2023-01-10T01:27:50;1.90;;;0.10;;
72286;SDS011;60221;45.696;16.076;2023-01-10T01:30:17;1.80;;;0.00;;
72286;SDS011;60221;45.696;16.076;2023-01-10T01:32:43;1.30;;;0.00;;
72286;SDS011;60221;45.696;16.076;2023-01-10T01:35:11;1.80;;;0.10;;
72286;SDS011;60221;45.696;16.076;2023-01-10T01:37:39;1.80;;;0.10;;
72286;SDS011;60221;45.696;16.076;2023-01-10T01:40:06;1.40;;;0.00;;
72286;SDS011;60221;45.696;16.076;2023-01-10T01:42:35;1.30;;;0.10;;
72286;SDS011;60221;45.696;16.076;2023-01-10T01:47:45;2.90;;;0.10;;
72286;SDS011;60221;45.696;16.076;2023-01-10T01:50:29;0.70;;;0.00;;
72286;SDS011;60221;45.696;16.076;2023-01-10T01:52:58;1.00;;;0.00;;
72286;SDS011;60221;45.696;16.076;2023-01-10T01:55:26;1.00;;;0.00;;
72286;SDS011;60221;45.696;16.076;2023-01-10T01:57:54;1.20;;;0.00;;
72286;SDS011;60221;45.696;16.076;2023-01-10T02:00:21;1.60;;;0.00;;
72286;SDS011;60221;45.696;16.076;2023-01-10T02:02:49;2.00;;;0.10;;
72286;SDS011;60221;45.696;16.076;2023-01-10T02:05:28;2.10;;;0.20;;
72286;SDS011;60221;45.696;16.076;2023-01-10T02:07:56;1.20;;;0.00;;
72286;SDS011;60221;45.696;16.076;2023-01-10T02:12:50;1.20;;;0.00;;
72286;SDS011;60221;45.696;16.076;2023-01-10T02:15:19;2.30;;;0.00;;
72286;SDS011;60221;45.696;16.076;2023-01-10T02:17:46;2.30;;;0.00;;
72286;SDS011;60221;45.696;16.076;2023-01-10T02:20:14;2.90;;;0.10;;
72286;SDS011;60221;45.696;16.076;2023-01-10T02:27:55;1.60;;;0.00;;
72286;SDS011;60221;45.696;16.076;2023-01-10T02:35:47;1.60;;;0.10;;
72286;SDS011;60221;45.696;16.076;2023-01-10T02:43:44;2.80;;;0.30;;
72286;SDS011;60221;45.696;16.076;2023-01-10T02:46:14;1.80;;;0.10;;
72286;SDS011;60221;45.696;16.076;2023-01-10T02:48:41;1.60;;;0.10;;
72286;SDS011;60221;45.696;16.076;2023-01-10T02:51:19;2.00;;;0.20;;
72286;SDS011;60221;45.696;16.076;2023-01-10T02:53:47;4.30;;;0.40;;
72286;SDS011;60221;45.696;16.076;2023-01-10T02:56:35;5.50;;;1.30;;
72286;SDS011;60221;45.696;16.076;2023-01-10T03:01:47;3.50;;;1.40;;
72286;SDS011;60221;45.696;16.076;2023-01-10T03:04:29;4.80;;;1.10;;
72286;SDS011;60221;45.696;16.076;2023-01-10T03:07:08;2.60;;;0.40;;
72286;SDS011;60221;45.696;16.076;2023-01-10T03:09:49;2.70;;;0.30;;
72286;SDS011;60221;45.696;16.076;2023-01-10T03:12:20;3.30;;;0.30;;
72286;SDS011;60221;45.696;16.076;2023-01-10T03:14:47;2.70;;;0.20;;
72286;SDS011;60221;45.696;16.076;2023-01-10T03:17:14;1.40;;;0.10;;
72286;SDS011;60221;45.696;16.076;2023-01-10T03:19:44;1.70;;;0.10;;
72286;SDS011;60221;45.696;16.076;2023-01-10T03:22:11;1.70;;;0.10;;
72286;SDS011;60221;45.696;16.076;2023-01-10T03:24:39;2.10;;;0.10;;
72286;SDS011;60221;45.696;16.076;2023-01-10T03:29:43;1.20;;;0.00;;
72286;SDS011;60221;45.696;16.076;2023-01-10T03:32:11;1.90;;;0.10;;
72286;SDS011;60221;45.696;16.076;2023-01-10T03:34:39;1.40;;;0.00;;
72286;SDS011;60221;45.696;16.076;2023-01-10T03:37:15;2.30;;;0.00;;
72286;SDS011;60221;45.696;16.076;2023-01-10T03:39:52;2.10;;;0.10;;
72286;SDS011;60221;45.696;16.076;2023-01-10T03:42:45;1.60;;;0.10;;
72286;SDS011;60221;45.696;16.076;2023-01-10T03:45:33;1.10;;;0.00;;
72286;SDS011;60221;45.696;16.076;2023-01-10T03:48:04;1.70;;;0.00;;
72286;SDS011;60221;45.696;16.076;2023-01-10T03:50:31;1.10;;;0.00;;
72286;SDS011;60221;45.696;16.076;2023-01-10T03:52:58;1.50;;;0.10;;
72286;SDS011;60221;45.696;16.076;2023-01-10T03:55:26;1.30;;;0.10;;
72286;SDS011;60221;45.696;16.076;2023-01-10T03:57:53;1.40;;;0.10;;
72286;SDS011;60221;45.696;16.076;2023-01-10T04:00:20;1.30;;;0.00;;
72286;SDS011;60221;45.696;16.076;2023-01-10T04:02:47;1.30;;;0.00;;
72286;SDS011;60221;45.696;16.076;2023-01-10T04:05:13;2.00;;;0.10;;
72286;SDS011;60221;45.696;16.076;2023-01-10T04:07:40;2.00;;;0.10;;
72286;SDS011;60221;45.696;16.076;2023-01-10T04:10:07;1.80;;;0.00;;
72286;SDS011;60221;45.696;16.076;2023-01-10T04:12:34;2.00;;;0.10;;
72286;SDS011;60221;45.696;16.076;2023-01-10T04:15:01;6.50;;;2.20;;
72286;SDS011;60221;45.696;16.076;2023-01-10T04:17:28;16.20;;;11.30;;
72286;SDS011;60221;45.696;16.076;2023-01-10T04:19:55;12.60;;;8.20;;
72286;SDS011;60221;45.696;16.076;2023-01-10T04:22:21;5.80;;;3.00;;
72286;SDS011;60221;45.696;16.076;2023-01-10T04:24:48;5.20;;;1.60;;
72286;SDS011;60221;45.696;16.076;2023-01-10T04:27:17;3.90;;;1.50;;
72286;SDS011;60221;45.696;16.076;2023-01-10T04:29:44;2.70;;;0.70;;
72286;SDS011;60221;45.696;16.076;2023-01-10T04:32:11;3.10;;;0.80;;
72286;SDS011;60221;45.696;16.076;2023-01-10T04:34:38;2.90;;;1.00;;
72286;SDS011;60221;45.696;16.076;2023-01-10T04:37:04;1.80;;;0.20;;
72286;SDS011;60221;45.696;16.076;2023-01-10T04:39:31;2.50;;;0.50;;
72286;SDS011;60221;45.696;16.076;2023-01-10T04:41:58;2.20;;;0.60;;
72286;SDS011;60221;45.696;16.076;2023-01-10T04:44:24;4.90;;;2.90;;
72286;SDS011;60221;45.696;16.076;2023-01-10T04:46:51;4.80;;;2.20;;
72286;SDS011;60221;45.696;16.076;2023-01-10T04:49:18;2.30;;;0.30;;
72286;SDS011;60221;45.696;16.076;2023-01-10T04:51:44;3.10;;;1.40;;
72286;SDS011;60221;45.696;16.076;2023-01-10T04:54:11;1.90;;;0.20;;
72286;SDS011;60221;45.696;16.076;2023-01-10T04:56:38;2.40;;;0.20;;
72286;SDS011;60221;45.696;16.076;2023-01-10T04:59:05;2.40;;;0.10;;
72286;SDS011;60221;45.696;16.076;2023-01-10T05:01:32;2.40;;;0.10;;
72286;SDS011;60221;45.696;16.076;2023-01-10T05:04:00;2.70;;;0.10;;
72286;SDS011;60221;45.696;16.076;2023-01-10T05:06:28;3.50;;;0.10;;
72286;SDS011;60221;45.696;16.076;2023-01-10T05:08:55;2.80;;;0.10;;
72286;SDS011;60221;45.696;16.076;2023-01-10T05:11:22;2.80;;;0.30;;
72286;SDS011;60221;45.696;16.076;2023-01-10T05:13:49;2.90;;;0.40;;
72286;SDS011;60221;45.696;16.076;2023-01-10T05:16:16;3.00;;;0.30;;
72286;SDS011;60221;45.696;16.076;2023-01-10T05:18:43;2.20;;;0.10;;
72286;SDS011;60221;45.696;16.076;2023-01-10T05:21:11;1.90;;;0.20;;
72286;SDS011;60221;45.696;16.076;2023-01-10T05:23:38;2.30;;;0.20;;
72286;SDS011;60221;45.696;16.076;2023-01-10T05:28:32;2.80;;;0.40;;
72286;SDS011;60221;45.696;16.076;2023-01-10T05:30:59;2.50;;;0.20;;
72286;SDS011;60221;45.696;16.076;2023-01-10T05:33:25;4.70;;;0.30;;
72286;SDS011;60221;45.696;16.076;2023-01-10T05:35:52;2.50;;;0.10;;
72286;SDS011;60221;45.696;16.076;2023-01-10T05:38:19;3.10;;;0.20;;
72286;SDS011;60221;45.696;16.076;2023-01-10T05:40:45;2.80;;;0.40;;
72286;SDS011;60221;45.696;16.076;2023-01-10T05:43:12;3.70;;;0.30;;
72286;SDS011;60221;45.696;16.076;2023-01-10T05:45:38;2.40;;;0.20;;
72286;SDS011;60221;45.696;16.076;2023-01-10T05:48:05;1.90;;;0.10;;
72286;SDS011;60221;45.696;16.076;2023-01-10T05:50:32;3.00;;;0.30;;
72286;SDS011;60221;45.696;16.076;2023-01-10T05:52:59;2.40;;;0.20;;
72286;SDS011;60221;45.696;16.076;2023-01-10T05:55:29;2.10;;;0.10;;
72286;SDS011;60221;45.696;16.076;2023-01-10T05:57:55;3.00;;;0.20;;
72286;SDS011;60221;45.696;16.076;2023-01-10T06:00:22;3.90;;;0.50;;
72286;SDS011;60221;45.696;16.076;2023-01-10T06:02:52;3.30;;;0.40;;
72286;SDS011;60221;45.696;16.076;2023-01-10T06:05:20;4.80;;;0.50;;
72286;SDS011;60221;45.696;16.076;2023-01-10T06:07:47;4.00;;;0.60;;
72286;SDS011;60221;45.696;16.076;2023-01-10T06:10:14;3.50;;;0.70;;
72286;SDS011;60221;45.696;16.076;2023-01-10T06:12:41;3.40;;;0.20;;
72286;SDS011;60221;45.696;16.076;2023-01-10T06:15:08;2.60;;;0.20;;
72286;SDS011;60221;45.696;16.076;2023-01-10T06:17:34;3.40;;;0.30;;
72286;SDS011;60221;45.696;16.076;2023-01-10T06:20:01;2.80;;;0.40;;
72286;SDS011;60221;45.696;16.076;2023-01-10T06:22:28;2.10;;;0.30;;
72286;SDS011;60221;45.696;16.076;2023-01-10T06:24:55;1.40;;;0.10;;
72286;SDS011;60221;45.696;16.076;2023-01-10T06:27:21;2.40;;;0.20;;
72286;SDS011;60221;45.696;16.076;2023-01-10T06:29:48;2.50;;;0.20;;
72286;SDS011;60221;45.696;16.076;2023-01-10T06:32:15;3.20;;;0.10;;
72286;SDS011;60221;45.696;16.076;2023-01-10T06:34:41;2.40;;;0.50;;
72286;SDS011;60221;45.696;16.076;2023-01-10T06:37:08;2.20;;;0.30;;
72286;SDS011;60221;45.696;16.076;2023-01-10T06:39:35;2.70;;;0.30;;
72286;SDS011;60221;45.696;16.076;2023-01-10T06:42:01;3.30;;;0.30;;
72286;SDS011;60221;45.696;16.076;2023-01-10T06:44:28;3.60;;;0.60;;
72286;SDS011;60221;45.696;16.076;2023-01-10T06:46:54;3.00;;;0.40;;
72286;SDS011;60221;45.696;16.076;2023-01-10T06:49:21;3.00;;;0.70;;
72286;SDS011;60221;45.696;16.076;2023-01-10T06:51:48;3.80;;;0.40;;
72286;SDS011;60221;45.696;16.076;2023-01-10T06:54:14;3.20;;;0.40;;
72286;SDS011;60221;45.696;16.076;2023-01-10T06:56:42;3.80;;;0.30;;
72286;SDS011;60221;45.696;16.076;2023-01-10T06:59:08;3.20;;;0.50;;
72286;SDS011;60221;45.696;16.076;2023-01-10T07:01:35;3.20;;;0.40;;
72286;SDS011;60221;45.696;16.076;2023-01-10T07:04:02;4.30;;;0.90;;
72286;SDS011;60221;45.696;16.076;2023-01-10T07:06:29;3.10;;;0.50;;
72286;SDS011;60221;45.696;16.076;2023-01-10T07:08:57;3.10;;;0.20;;
72286;SDS011;60221;45.696;16.076;2023-01-10T07:11:23;4.60;;;0.90;;
72286;SDS011;60221;45.696;16.076;2023-01-10T07:13:50;12.10;;;4.40;;
72286;SDS011;60221;45.696;16.076;2023-01-10T07:16:18;5.00;;;1.10;;
72286;SDS011;60221;45.696;16.076;2023-01-10T07:18:45;3.40;;;0.70;;
72286;SDS011;60221;45.696;16.076;2023-01-10T07:21:12;5.50;;;1.80;;
72286;SDS011;60221;45.696;16.076;2023-01-10T07:23:39;5.30;;;1.70;;
72286;SDS011;60221;45.696;16.076;2023-01-10T07:26:06;4.80;;;1.40;;
72286;SDS011;60221;45.696;16.076;2023-01-10T07:28:33;6.50;;;2.40;;
72286;SDS011;60221;45.696;16.076;2023-01-10T07:31:01;6.20;;;2.20;;
72286;SDS011;60221;45.696;16.076;2023-01-10T07:33:28;10.90;;;4.70;;
72286;SDS011;60221;45.696;16.076;2023-01-10T07:35:56;6.10;;;1.90;;
72286;SDS011;60221;45.696;16.076;2023-01-10T07:38:22;5.40;;;2.20;;
72286;SDS011;60221;45.696;16.076;2023-01-10T07:40:49;4.30;;;0.80;;
72286;SDS011;60221;45.696;16.076;2023-01-10T07:43:16;4.10;;;1.10;;
72286;SDS011;60221;45.696;16.076;2023-01-10T07:45:42;5.50;;;1.40;;
72286;SDS011;60221;45.696;16.076;2023-01-10T07:48:09;6.10;;;1.60;;
72286;SDS011;60221;45.696;16.076;2023-01-10T07:50:36;4.50;;;0.50;;
72286;SDS011;60221;45.696;16.076;2023-01-10T07:53:04;2.60;;;0.20;;
72286;SDS011;60221;45.696;16.076;2023-01-10T07:55:31;2.40;;;0.30;;
72286;SDS011;60221;45.696;16.076;2023-01-10T07:58:00;3.70;;;0.50;;
72286;SDS011;60221;45.696;16.076;2023-01-10T08:00:26;3.70;;;0.90;;
72286;SDS011;60221;45.696;16.076;2023-01-10T08:02:53;5.60;;;1.20;;
72286;SDS011;60221;45.696;16.076;2023-01-10T08:05:21;8.70;;;3.40;;
72286;SDS011;60221;45.696;16.076;2023-01-10T08:07:48;4.90;;;1.30;;
72286;SDS011;60221;45.696;16.076;2023-01-10T08:10:15;4.90;;;0.90;;
72286;SDS011;60221;45.696;16.076;2023-01-10T08:12:42;4.40;;;1.30;;
72286;SDS011;60221;45.696;16.076;2023-01-10T08:15:09;5.60;;;1.60;;
72286;SDS011;60221;45.696;16.076;2023-01-10T08:17:35;6.80;;;1.90;;
72286;SDS011;60221;45.696;16.076;2023-01-10T08:20:02;8.00;;;1.80;;
72286;SDS011;60221;45.696;16.076;2023-01-10T08:22:29;4.20;;;1.00;;
72286;SDS011;60221;45.696;16.076;2023-01-10T08:24:56;6.40;;;1.60;;
72286;SDS011;60221;45.696;16.076;2023-01-10T08:27:22;7.90;;;0.90;;
72286;SDS011;60221;45.696;16.076;2023-01-10T08:29:49;3.30;;;0.30;;
72286;SDS011;60221;45.696;16.076;2023-01-10T08:32:15;5.10;;;1.50;;
72286;SDS011;60221;45.696;16.076;2023-01-10T08:34:42;3.70;;;0.50;;
72286;SDS011;60221;45.696;16.076;2023-01-10T08:37:11;4.40;;;0.90;;
72286;SDS011;60221;45.696;16.076;2023-01-10T08:39:38;3.90;;;0.50;;
72286;SDS011;60221;45.696;16.076;2023-01-10T08:42:05;5.60;;;1.60;;
72286;SDS011;60221;45.696;16.076;2023-01-10T08:44:32;4.10;;;0.70;;
72286;SDS011;60221;45.696;16.076;2023-01-10T08:46:59;6.40;;;0.80;;
72286;SDS011;60221;45.696;16.076;2023-01-10T08:49:25;5.60;;;1.00;;
72286;SDS011;60221;45.696;16.076;2023-01-10T08:51:52;4.50;;;1.00;;
72286;SDS011;60221;45.696;16.076;2023-01-10T08:54:19;5.30;;;1.10;;
72286;SDS011;60221;45.696;16.076;2023-01-10T08:56:46;4.70;;;1.70;;
72286;SDS011;60221;45.696;16.076;2023-01-10T08:59:12;7.00;;;2.50;;
72286;SDS011;60221;45.696;16.076;2023-01-10T09:01:39;8.40;;;3.20;;
72286;SDS011;60221;45.696;16.076;2023-01-10T09:04:06;8.70;;;4.10;;
72286;SDS011;60221;45.696;16.076;2023-01-10T09:06:32;6.40;;;2.40;;
72286;SDS011;60221;45.696;16.076;2023-01-10T09:08:59;10.80;;;3.90;;
72286;SDS011;60221;45.696;16.076;2023-01-10T09:11:26;9.90;;;3.10;;
72286;SDS011;60221;45.696;16.076;2023-01-10T09:13:53;6.60;;;1.90;;
72286;SDS011;60221;45.696;16.076;2023-01-10T09:16:19;6.40;;;1.80;;
72286;SDS011;60221;45.696;16.076;2023-01-10T09:18:46;4.90;;;0.70;;
72286;SDS011;60221;45.696;16.076;2023-01-10T09:21:13;3.40;;;0.50;;
72286;SDS011;60221;45.696;16.076;2023-01-10T09:23:40;3.30;;;0.40;;
72286;SDS011;60221;45.696;16.076;2023-01-10T09:26:09;2.80;;;0.30;;
72286;SDS011;60221;45.696;16.076;2023-01-10T09:28:36;5.20;;;1.60;;
72286;SDS011;60221;45.696;16.076;2023-01-10T09:31:03;5.00;;;1.30;;
72286;SDS011;60221;45.696;16.076;2023-01-10T09:33:31;4.90;;;1.00;;
72286;SDS011;60221;45.696;16.076;2023-01-10T09:36:12;6.40;;;1.60;;
72286;SDS011;60221;45.696;16.076;2023-01-10T09:38:41;5.10;;;1.50;;
72286;SDS011;60221;45.696;16.076;2023-01-10T09:48:47;5.40;;;1.60;;
72286;SDS011;60221;45.696;16.076;2023-01-10T09:53:41;5.50;;;0.40;;
72286;SDS011;60221;45.696;16.076;2023-01-10T09:56:09;10.30;;;5.20;;
72286;SDS011;60221;45.696;16.076;2023-01-10T09:58:39;5.90;;;1.80;;
72286;SDS011;60221;45.696;16.076;2023-01-10T10:01:20;3.90;;;1.10;;
72286;SDS011;60221;45.696;16.076;2023-01-10T10:03:58;6.30;;;2.20;;
72286;SDS011;60221;45.696;16.076;2023-01-10T10:06:26;5.40;;;1.20;;
72286;SDS011;60221;45.696;16.076;2023-01-10T10:08:53;3.60;;;0.50;;
72286;SDS011;60221;45.696;16.076;2023-01-10T10:26:34;8.50;;;1.90;;
72286;SDS011;60221;45.696;16.076;2023-01-10T10:39:16;3.30;;;0.20;;
72286;SDS011;60221;45.696;16.076;2023-01-10T10:41:45;4.30;;;0.60;;
72286;SDS011;60221;45.696;16.076;2023-01-10T10:44:31;2.90;;;0.30;;
72286;SDS011;60221;45.696;16.076;2023-01-10T10:46:59;2.40;;;0.20;;
72286;SDS011;60221;45.696;16.076;2023-01-10T10:49:34;1.80;;;0.10;;
72286;SDS011;60221;45.696;16.076;2023-01-10T10:52:03;2.20;;;0.20;;
72286;SDS011;60221;45.696;16.076;2023-01-10T10:54:35;3.00;;;0.50;;
72286;SDS011;60221;45.696;16.076;2023-01-10T10:57:02;3.10;;;0.50;;
72286;SDS011;60221;45.696;16.076;2023-01-10T10:59:29;3.40;;;0.70;;
72286;SDS011;60221;45.696;16.076;2023-01-10T11:01:56;2.60;;;0.30;;
72286;SDS011;60221;45.696;16.076;2023-01-10T11:04:24;3.10;;;0.40;;
72286;SDS011;60221;45.696;16.076;2023-01-10T11:06:52;3.70;;;0.40;;
72286;SDS011;60221;45.696;16.076;2023-01-10T11:09:20;2.60;;;0.30;;
72286;SDS011;60221;45.696;16.076;2023-01-10T11:11:54;2.70;;;0.10;;
72286;SDS011;60221;45.696;16.076;2023-01-10T11:14:43;3.10;;;0.40;;
72286;SDS011;60221;45.696;16.076;2023-01-10T11:22:27;4.40;;;0.60;;
72286;SDS011;60221;45.696;16.076;2023-01-10T11:24:59;3.60;;;0.40;;
72286;SDS011;60221;45.696;16.076;2023-01-10T11:27:27;2.50;;;0.40;;
72286;SDS011;60221;45.696;16.076;2023-01-10T11:29:56;3.00;;;0.50;;
72286;SDS011;60221;45.696;16.076;2023-01-10T11:32:33;5.00;;;0.90;;
72286;SDS011;60221;45.696;16.076;2023-01-10T11:35:06;3.90;;;0.80;;
72286;SDS011;60221;45.696;16.076;2023-01-10T11:37:34;6.90;;;2.00;;
72286;SDS011;60221;45.696;16.076;2023-01-10T11:42:43;9.80;;;2.80;;
72286;SDS011;60221;45.696;16.076;2023-01-10T11:45:20;6.60;;;1.40;;
72286;SDS011;60221;45.696;16.076;2023-01-10T11:47:48;28.90;;;9.20;;
72286;SDS011;60221;45.696;16.076;2023-01-10T11:50:19;14.70;;;4.70;;
72286;SDS011;60221;45.696;16.076;2023-01-10T11:52:47;7.50;;;2.40;;
72286;SDS011;60221;45.696;16.076;2023-01-10T11:55:27;8.70;;;2.80;;
72286;SDS011;60221;45.696;16.076;2023-01-10T11:58:11;6.70;;;2.20;;
72286;SDS011;60221;45.696;16.076;2023-01-10T12:00:42;7.80;;;2.10;;
72286;SDS011;60221;45.696;16.076;2023-01-10T12:03:14;8.90;;;3.10;;
72286;SDS011;60221;45.696;16.076;2023-01-10T12:05:47;8.70;;;2.60;;
72286;SDS011;60221;45.696;16.076;2023-01-10T12:08:24;9.50;;;3.40;;
72286;SDS011;60221;45.696;16.076;2023-01-10T12:10:57;6.80;;;2.50;;
72286;SDS011;60221;45.696;16.076;2023-01-10T12:13:26;7.10;;;2.70;;
72286;SDS011;60221;45.696;16.076;2023-01-10T12:16:05;12.00;;;3.20;;
72286;SDS011;60221;45.696;16.076;2023-01-10T12:18:39;12.30;;;4.50;;
72286;SDS011;60221;45.696;16.076;2023-01-10T12:21:06;11.80;;;4.40;;
72286;SDS011;60221;45.696;16.076;2023-01-10T12:23:33;12.70;;;5.10;;
72286;SDS011;60221;45.696;16.076;2023-01-10T12:26:09;8.80;;;1.80;;
72286;SDS011;60221;45.696;16.076;2023-01-10T12:28:43;6.50;;;1.80;;
72286;SDS011;60221;45.696;16.076;2023-01-10T12:31:12;4.40;;;0.90;;
72286;SDS011;60221;45.696;16.076;2023-01-10T12:33:42;3.90;;;0.90;;
72286;SDS011;60221;45.696;16.076;2023-01-10T12:44:33;4.00;;;0.70;;
72286;SDS011;60221;45.696;16.076;2023-01-10T12:55:11;4.20;;;0.80;;
72286;SDS011;60221;45.696;16.076;2023-01-10T12:57:38;3.50;;;0.50;;
72286;SDS011;60221;45.696;16.076;2023-01-10T13:00:14;7.60;;;0.50;;
72286;SDS011;60221;45.696;16.076;2023-01-10T13:02:45;4.30;;;0.30;;
72286;SDS011;60221;45.696;16.076;2023-01-10T13:05:14;5.50;;;1.30;;
72286;SDS011;60221;45.696;16.076;2023-01-10T13:07:42;3.80;;;0.60;;
72286;SDS011;60221;45.696;16.076;2023-01-10T13:10:09;2.70;;;0.20;;
72286;SDS011;60221;45.696;16.076;2023-01-10T13:12:42;2.70;;;0.20;;
72286;SDS011;60221;45.696;16.076;2023-01-10T13:15:16;3.90;;;0.60;;
72286;SDS011;60221;45.696;16.076;2023-01-10T13:17:46;2.70;;;0.20;;
72286;SDS011;60221;45.696;16.076;2023-01-10T13:22:50;6.60;;;0.50;;
72286;SDS011;60221;45.696;16.076;2023-01-10T13:28:04;2.80;;;0.30;;
72286;SDS011;60221;45.696;16.076;2023-01-10T13:30:35;4.90;;;0.80;;
72286;SDS011;60221;45.696;16.076;2023-01-10T13:35:41;8.60;;;2.60;;
72286;SDS011;60221;45.696;16.076;2023-01-10T13:38:43;7.70;;;1.40;;
72286;SDS011;60221;45.696;16.076;2023-01-10T13:41:03;6.10;;;1.20;;
72286;SDS011;60221;45.696;16.076;2023-01-10T13:51:17;9.00;;;1.90;;
72286;SDS011;60221;45.696;16.076;2023-01-10T13:59:09;9.50;;;2.70;;
72286;SDS011;60221;45.696;16.076;2023-01-10T14:01:56;5.50;;;0.80;;
72286;SDS011;60221;45.696;16.076;2023-01-10T14:05:06;7.10;;;1.40;;
72286;SDS011;60221;45.696;16.076;2023-01-10T14:07:43;5.10;;;0.80;;
72286;SDS011;60221;45.696;16.076;2023-01-10T14:10:18;7.70;;;1.60;;
72286;SDS011;60221;45.696;16.076;2023-01-10T14:15:24;6.70;;;1.50;;
72286;SDS011;60221;45.696;16.076;2023-01-10T14:17:55;7.00;;;1.10;;
72286;SDS011;60221;45.696;16.076;2023-01-10T14:20:23;7.30;;;1.30;;
72286;SDS011;60221;45.696;16.076;2023-01-10T14:25:23;8.80;;;1.70;;
72286;SDS011;60221;45.696;16.076;2023-01-10T14:27:51;8.90;;;1.80;;
72286;SDS011;60221;45.696;16.076;2023-01-10T14:30:21;6.50;;;1.10;;
72286;SDS011;60221;45.696;16.076;2023-01-10T14:32:49;4.50;;;0.60;;
72286;SDS011;60221;45.696;16.076;2023-01-10T14:35:18;4.10;;;0.60;;
72286;SDS011;60221;45.696;16.076;2023-01-10T14:37:49;6.80;;;1.00;;
72286;SDS011;60221;45.696;16.076;2023-01-10T14:42:58;7.90;;;1.70;;
72286;SDS011;60221;45.696;16.076;2023-01-10T14:45:50;6.70;;;0.90;;
72286;SDS011;60221;45.696;16.076;2023-01-10T14:50:49;9.50;;;1.40;;
72286;SDS011;60221;45.696;16.076;2023-01-10T14:53:25;5.60;;;1.00;;
72286;SDS011;60221;45.696;16.076;2023-01-10T14:55:52;14.10;;;3.10;;
72286;SDS011;60221;45.696;16.076;2023-01-10T14:58:19;7.90;;;1.90;;
72286;SDS011;60221;45.696;16.076;2023-01-10T15:00:48;10.80;;;3.00;;
72286;SDS011;60221;45.696;16.076;2023-01-10T15:03:16;7.10;;;1.30;;
72286;SDS011;60221;45.696;16.076;2023-01-10T15:05:44;11.00;;;1.60;;
72286;SDS011;60221;45.696;16.076;2023-01-10T15:08:28;5.80;;;1.10;;
72286;SDS011;60221;45.696;16.076;2023-01-10T15:11:02;7.00;;;1.50;;
72286;SDS011;60221;45.696;16.076;2023-01-10T15:13:30;7.20;;;1.30;;
72286;SDS011;60221;45.696;16.076;2023-01-10T15:15:58;5.40;;;0.70;;
72286;SDS011;60221;45.696;16.076;2023-01-10T15:20:55;8.00;;;2.30;;
72286;SDS011;60221;45.696;16.076;2023-01-10T15:23:23;11.30;;;3.00;;
72286;SDS011;60221;45.696;16.076;2023-01-10T15:25:53;19.80;;;4.40;;
72286;SDS011;60221;45.696;16.076;2023-01-10T15:28:21;10.60;;;2.40;;
72286;SDS011;60221;45.696;16.076;2023-01-10T15:30:48;9.30;;;1.60;;
72286;SDS011;60221;45.696;16.076;2023-01-10T15:33:16;6.80;;;1.70;;
72286;SDS011;60221;45.696;16.076;2023-01-10T15:35:43;4.60;;;0.70;;
72286;SDS011;60221;45.696;16.076;2023-01-10T15:38:11;6.00;;;0.90;;
72286;SDS011;60221;45.696;16.076;2023-01-10T15:40:39;8.10;;;1.70;;
72286;SDS011;60221;45.696;16.076;2023-01-10T15:43:11;6.10;;;1.30;;
72286;SDS011;60221;45.696;16.076;2023-01-10T15:45:38;7.30;;;1.90;;
72286;SDS011;60221;45.696;16.076;2023-01-10T15:50:53;9.50;;;2.30;;
72286;SDS011;60221;45.696;16.076;2023-01-10T15:53:20;9.40;;;1.90;;
72286;SDS011;60221;45.696;16.076;2023-01-10T15:56:07;7.40;;;2.30;;
72286;SDS011;60221;45.696;16.076;2023-01-10T15:58:36;26.10;;;7.40;;
72286;SDS011;60221;45.696;16.076;2023-01-10T16:01:03;11.60;;;3.70;;
72286;SDS011;60221;45.696;16.076;2023-01-10T16:03:32;14.80;;;3.80;;
72286;SDS011;60221;45.696;16.076;2023-01-10T16:06:00;12.50;;;4.00;;
72286;SDS011;60221;45.696;16.076;2023-01-10T16:08:29;9.30;;;2.40;;
72286;SDS011;60221;45.696;16.076;2023-01-10T16:10:59;9.10;;;1.80;;
72286;SDS011;60221;45.696;16.076;2023-01-10T16:13:26;10.00;;;2.70;;
72286;SDS011;60221;45.696;16.076;2023-01-10T16:15:54;10.70;;;2.60;;
72286;SDS011;60221;45.696;16.076;2023-01-10T16:18:21;11.10;;;3.10;;
72286;SDS011;60221;45.696;16.076;2023-01-10T16:20:48;16.00;;;3.30;;
72286;SDS011;60221;45.696;16.076;2023-01-10T16:25:43;15.40;;;4.80;;
72286;SDS011;60221;45.696;16.076;2023-01-10T16:28:11;13.80;;;3.50;;
72286;SDS011;60221;45.696;16.076;2023-01-10T16:30:39;7.90;;;1.90;;
72286;SDS011;60221;45.696;16.076;2023-01-10T16:35:47;11.20;;;3.30;;
72286;SDS011;60221;45.696;16.076;2023-01-10T16:38:14;18.00;;;5.50;;
72286;SDS011;60221;45.696;16.076;2023-01-10T16:40:45;14.20;;;3.30;;
72286;SDS011;60221;45.696;16.076;2023-01-10T16:43:12;12.00;;;3.90;;
72286;SDS011;60221;45.696;16.076;2023-01-10T16:45:48;10.10;;;2.10;;
72286;SDS011;60221;45.696;16.076;2023-01-10T16:48:16;7.10;;;2.20;;
72286;SDS011;60221;45.696;16.076;2023-01-10T16:50:43;10.70;;;3.50;;
72286;SDS011;60221;45.696;16.076;2023-01-10T16:53:14;9.20;;;2.50;;
72286;SDS011;60221;45.696;16.076;2023-01-10T16:55:45;12.10;;;3.30;;